Time;durP1;ratioP1;P1;durP2;ratioP2;P2;SDS_P1;SDS_P2;PMS_P1;PMS_P2;Temp;Humidity;BMP_temperature;BMP_pressure;BME280_temperature;BME280_humidity;BME280_pressure;Samples;Min_cycle;Max_cycle;Signal;HPM_P1;HPM_P2
2022/12/29 00:02:13;;;;;;;3.75;2.42;;;11.60;99.90;;;;;;4983354;28;20466;-86
2022/12/29 00:04:39;;;;;;;4.40;2.50;;;11.60;99.90;;;;;;4979181;28;20393;-85
2022/12/29 00:07:05;;;;;;;4.75;2.50;;;11.70;99.90;;;;;;4999630;28;20026;-84
2022/12/29 00:09:32;;;;;;;4.63;2.17;;;11.70;99.90;;;;;;4983671;28;20128;-84
2022/12/29 00:11:58;;;;;;;3.95;2.28;;;11.60;99.90;;;;;;4997393;28;20054;-84
2022/12/29 00:17:08;;;;;;;4.30;2.08;;;11.70;99.90;;;;;;5016307;28;20063;-85
2022/12/29 00:36:14;;;;;;;3.25;2.40;;;11.70;99.90;;;;;;5002085;28;20044;-84
2022/12/29 00:44:15;;;;;;;5.47;2.42;;;11.70;99.90;;;;;;5001791;28;20045;-85
2022/12/29 00:46:42;;;;;;;3.95;2.10;;;11.70;99.90;;;;;;5015966;28;20470;-85
2022/12/29 00:52:03;;;;;;;3.53;2.00;;;11.70;99.90;;;;;;5016034;28;20041;-85
2022/12/29 00:54:34;;;;;;;3.15;2.08;;;11.70;99.90;;;;;;5016428;28;20037;-84
2022/12/29 00:57:02;;;;;;;4.53;2.20;;;11.70;99.90;;;;;;5015603;28;20136;-85
2022/12/29 00:59:27;;;;;;;2.83;1.88;;;11.70;99.90;;;;;;4998447;28;20030;-85
2022/12/29 01:01:54;;;;;;;6.22;1.75;;;11.70;99.90;;;;;;4982132;28;20470;-85
2022/12/29 01:04:22;;;;;;;3.47;1.90;;;11.70;99.90;;;;;;4982392;28;20084;-85
2022/12/29 01:06:47;;;;;;;4.32;1.90;;;11.70;99.90;;;;;;4998500;28;20029;-85
2022/12/29 01:11:57;;;;;;;3.17;1.58;;;11.70;99.90;;;;;;5015914;28;20165;-85
2022/12/29 01:14:24;;;;;;;2.20;1.23;;;11.70;99.90;;;;;;4982249;28;20105;-85
2022/12/29 01:16:50;;;;;;;3.83;1.58;;;11.70;99.90;;;;;;4997314;28;20096;-84
2022/12/29 01:19:16;;;;;;;4.30;1.50;;;11.70;99.90;;;;;;4982350;28;20093;-84
2022/12/29 01:21:42;;;;;;;2.40;1.17;;;11.70;99.90;;;;;;4998084;28;20033;-84
2022/12/29 01:24:07;;;;;;;4.45;1.20;;;11.70;99.90;;;;;;4997927;28;20031;-84
2022/12/29 01:26:33;;;;;;;1.63;1.00;;;11.70;99.90;;;;;;4982297;28;20038;-85
2022/12/29 01:28:59;;;;;;;2.25;0.90;;;11.70;99.90;;;;;;4981795;28;20057;-85
2022/12/29 01:31:24;;;;;;;2.30;1.30;;;11.70;99.90;;;;;;4998699;28;20017;-84
2022/12/29 01:33:50;;;;;;;1.45;0.80;;;11.60;99.90;;;;;;4982179;28;20076;-84
2022/12/29 01:36:17;;;;;;;2.15;0.90;;;11.70;99.90;;;;;;4998369;28;20026;-85
2022/12/29 01:38:43;;;;;;;2.88;1.00;;;11.70;99.90;;;;;;5015437;28;20104;-85
2022/12/29 01:41:11;;;;;;;1.52;0.93;;;11.60;99.90;;;;;;5015612;28;20044;-84
2022/12/29 01:43:53;;;;;;;1.85;1.10;;;11.60;99.90;;;;;;4982001;28;20041;-85
2022/12/29 01:46:42;;;;;;;1.20;1.02;;;11.60;99.90;;;;;;4998392;28;20487;-85
2022/12/29 01:49:11;;;;;;;2.38;1.10;;;11.60;99.90;;;;;;4998072;28;20084;-85
2022/12/29 01:52:05;;;;;;;4.40;1.35;;;11.50;99.90;;;;;;4997559;28;20026;-85
2022/12/29 01:54:37;;;;;;;2.35;1.67;;;11.50;99.90;;;;;;5015446;28;20057;-84
2022/12/29 01:57:10;;;;;;;3.05;1.30;;;11.50;99.90;;;;;;4998354;28;20022;-85
2022/12/29 01:59:48;;;;;;;2.58;1.30;;;11.50;99.90;;;;;;4998140;28;20036;-85
2022/12/29 02:02:14;;;;;;;2.95;1.60;;;11.50;99.90;;;;;;4998414;28;20121;-85
2022/12/29 02:04:45;;;;;;;1.88;1.30;;;11.60;99.90;;;;;;4981297;28;20125;-86
2022/12/29 02:07:18;;;;;;;2.88;1.60;;;11.50;99.90;;;;;;4998021;28;20030;-85
2022/12/29 02:09:48;;;;;;;1.83;1.48;;;11.60;99.90;;;;;;4999002;28;20461;-85
2022/12/29 02:12:14;;;;;;;1.85;1.40;;;11.60;99.90;;;;;;5032895;28;20105;-85
2022/12/29 02:14:40;;;;;;;4.10;1.70;;;11.60;99.90;;;;;;5019055;28;20038;-85
2022/12/29 02:17:25;;;;;;;3.33;1.45;;;11.70;99.90;;;;;;4982953;28;20045;-83
2022/12/29 02:19:54;;;;;;;2.55;1.30;;;11.70;99.90;;;;;;4997765;28;20037;-89
2022/12/29 02:22:45;;;;;;;2.15;1.30;;;11.70;99.90;;;;;;5014869;28;20026;-84
2022/12/29 02:25:45;;;;;;;3.08;1.20;;;11.70;99.90;;;;;;4997522;28;20072;-85
2022/12/29 02:28:39;;;;;;;1.65;1.35;;;11.80;99.90;;;;;;5001724;28;20037;-85
2022/12/29 02:31:23;;;;;;;1.98;1.00;;;11.80;99.90;;;;;;5021595;28;20026;-84
2022/12/29 02:34:01;;;;;;;3.08;1.10;;;11.80;99.90;;;;;;5003902;28;20065;-84
2022/12/29 02:36:45;;;;;;;4.07;1.27;;;11.80;99.90;;;;;;5004649;28;20425;-85
2022/12/29 02:39:23;;;;;;;3.58;1.00;;;11.80;99.90;;;;;;5003983;28;20022;-84
2022/12/29 02:42:12;;;;;;;4.18;1.20;;;11.90;99.90;;;;;;5021654;28;20343;-85
2022/12/29 02:44:49;;;;;;;1.88;0.77;;;11.90;99.90;;;;;;5014734;28;20506;-85
2022/12/29 02:47:27;;;;;;;3.47;0.90;;;11.90;99.90;;;;;;5003909;28;20048;-85
2022/12/29 02:50:24;;;;;;;3.55;1.00;;;12.00;99.90;;;;;;5004333;28;20064;-85
2022/12/29 02:52:54;;;;;;;1.92;0.90;;;12.00;99.90;;;;;;5020017;28;20061;-84
2022/12/29 02:55:20;;;;;;;2.50;0.85;;;12.00;99.90;;;;;;5004688;28;20026;-84
2022/12/29 02:57:46;;;;;;;2.80;0.90;;;12.00;99.90;;;;;;4988647;28;20030;-85
2022/12/29 03:00:17;;;;;;;3.50;1.10;;;12.00;99.90;;;;;;5004177;28;20022;-84
2022/12/29 03:02:54;;;;;;;3.75;0.70;;;12.10;99.90;;;;;;5007468;28;20028;-83
2022/12/29 03:05:33;;;;;;;1.67;0.70;;;12.10;99.90;;;;;;5040135;28;20030;-84
2022/12/29 03:08:10;;;;;;;1.67;0.70;;;12.10;99.90;;;;;;5024926;28;20006;-89
2022/12/29 03:12:07;;;;;;;3.25;0.75;;;12.20;99.90;;;;;;5027067;28;20006;-89
2022/12/29 03:16:47;;;;;;;3.42;0.82;;;12.20;99.90;;;;;;5042340;28;20036;-85
2022/12/29 03:19:19;;;;;;;2.67;0.90;;;12.20;99.90;;;;;;5026384;28;20018;-86
2022/12/29 03:24:39;;;;;;;3.22;0.68;;;12.30;99.90;;;;;;5020754;28;20037;-84
2022/12/29 03:27:08;;;;;;;2.40;0.73;;;12.30;99.90;;;;;;5003234;28;20434;-84
2022/12/29 03:29:39;;;;;;;2.70;0.77;;;12.30;99.90;;;;;;5003797;28;20084;-84
2022/12/29 03:32:07;;;;;;;3.40;0.82;;;12.30;99.90;;;;;;5003804;28;20116;-84
2022/12/29 03:34:35;;;;;;;3.25;1.25;;;12.30;99.90;;;;;;5003716;28;20030;-84
2022/12/29 03:37:23;;;;;;;3.42;0.88;;;12.30;99.90;;;;;;4987183;28;20025;-89
2022/12/29 03:39:49;;;;;;;3.35;0.90;;;12.30;99.90;;;;;;4999139;28;20022;-84
2022/12/29 03:42:19;;;;;;;3.58;1.02;;;12.30;99.90;;;;;;4983890;28;20121;-84
2022/12/29 03:44:45;;;;;;;2.53;0.77;;;12.30;99.90;;;;;;5000186;28;20032;-84
2022/12/29 03:47:13;;;;;;;2.53;0.82;;;12.30;99.90;;;;;;4999259;28;20030;-84
2022/12/29 03:49:38;;;;;;;3.55;0.65;;;12.30;99.90;;;;;;4999405;28;20041;-84
2022/12/29 03:52:04;;;;;;;3.63;0.70;;;12.30;99.90;;;;;;4983353;28;20026;-85
2022/12/29 03:54:31;;;;;;;2.78;0.82;;;12.40;99.90;;;;;;4999456;28;20466;-84
2022/12/29 03:56:57;;;;;;;3.25;0.80;;;12.30;99.90;;;;;;4999575;28;20381;-85
2022/12/29 03:59:23;;;;;;;2.00;1.00;;;12.40;99.90;;;;;;4999366;28;20030;-84
2022/12/29 04:01:48;;;;;;;3.20;0.88;;;12.40;99.90;;;;;;5017008;28;20048;-85
2022/12/29 04:04:14;;;;;;;3.50;0.80;;;12.40;99.90;;;;;;4983286;28;20037;-85
2022/12/29 04:06:40;;;;;;;4.13;0.82;;;12.30;99.90;;;;;;4982812;28;20034;-85
2022/12/29 04:09:06;;;;;;;3.95;1.10;;;12.30;99.90;;;;;;4999850;28;20026;-85
2022/12/29 04:11:32;;;;;;;5.15;1.27;;;12.30;99.90;;;;;;4983013;28;20084;-84
2022/12/29 04:13:59;;;;;;;2.33;0.80;;;12.30;99.90;;;;;;4999842;28;20421;-84
2022/12/29 04:16:25;;;;;;;3.53;0.90;;;12.30;99.90;;;;;;4983432;28;20036;-85
2022/12/29 04:18:51;;;;;;;6.05;1.10;;;12.30;99.90;;;;;;4982472;28;20030;-85
2022/12/29 04:21:16;;;;;;;4.25;1.13;;;12.30;99.90;;;;;;4969417;28;20026;-84
2022/12/29 04:23:42;;;;;;;3.20;0.80;;;12.30;99.90;;;;;;4944573;28;20027;-84
2022/12/29 04:26:08;;;;;;;4.22;1.00;;;12.20;99.90;;;;;;4979319;28;20034;-84
2022/12/29 04:28:35;;;;;;;1.88;0.80;;;12.30;99.90;;;;;;4976293;28;20065;-85
2022/12/29 04:31:01;;;;;;;2.90;0.85;;;12.30;99.90;;;;;;4977403;28;20089;-85
2022/12/29 04:33:27;;;;;;;2.47;0.93;;;12.30;99.90;;;;;;4979807;28;20031;-84
2022/12/29 04:35:53;;;;;;;3.40;0.95;;;12.30;99.90;;;;;;4961688;28;20391;-84
2022/12/29 04:38:20;;;;;;;4.75;0.82;;;12.30;99.90;;;;;;4977030;28;20027;-84
2022/12/29 04:40:46;;;;;;;1.92;0.60;;;12.30;99.90;;;;;;4993217;28;20007;-84
2022/12/29 04:43:13;;;;;;;3.05;1.00;;;12.30;99.90;;;;;;4994676;28;20031;-85
2022/12/29 04:45:42;;;;;;;4.72;1.10;;;12.30;99.90;;;;;;4993859;28;20416;-84
2022/12/29 04:48:08;;;;;;;2.90;0.70;;;12.30;99.90;;;;;;4980191;28;20117;-84
2022/12/29 04:50:34;;;;;;;6.22;1.00;;;12.20;99.90;;;;;;4995547;28;20498;-84
2022/12/29 04:53:00;;;;;;;3.88;0.80;;;12.20;99.90;;;;;;4978893;28;20031;-84
2022/12/29 04:55:26;;;;;;;4.55;1.15;;;12.30;99.90;;;;;;4975831;28;20030;-84
2022/12/29 04:57:55;;;;;;;4.40;0.90;;;12.30;99.90;;;;;;4977052;28;20085;-84
2022/12/29 05:00:20;;;;;;;3.83;1.02;;;12.20;99.90;;;;;;4995171;28;20403;-84
2022/12/29 05:02:46;;;;;;;7.03;1.50;;;12.20;99.90;;;;;;4976177;28;20094;-83
2022/12/29 05:05:12;;;;;;;4.97;1.10;;;12.20;99.90;;;;;;4975125;28;20468;-82
2022/12/29 05:07:38;;;;;;;4.60;1.00;;;12.10;99.90;;;;;;4974991;28;20027;-82
2022/12/29 05:10:04;;;;;;;3.72;0.82;;;12.00;99.90;;;;;;4992453;28;20097;-82
2022/12/29 05:12:34;;;;;;;4.55;1.33;;;11.90;99.90;;;;;;4974270;28;20105;-82
2022/12/29 05:15:02;;;;;;;3.83;1.00;;;11.70;99.90;;;;;;4975750;28;20099;-82
2022/12/29 05:17:28;;;;;;;3.97;0.93;;;11.70;99.90;;;;;;4974692;28;20270;-82
2022/12/29 05:19:54;;;;;;;5.25;1.02;;;11.60;99.90;;;;;;4975864;28;20085;-83
2022/12/29 05:22:20;;;;;;;3.78;1.27;;;11.50;99.90;;;;;;4975116;28;20034;-82
2022/12/29 05:24:45;;;;;;;6.20;1.40;;;11.40;99.90;;;;;;4974643;28;20422;-82
2022/12/29 05:27:11;;;;;;;6.18;1.23;;;11.30;99.90;;;;;;4974368;28;20061;-82
2022/12/29 05:29:36;;;;;;;5.70;1.52;;;11.30;99.90;;;;;;4974279;28;20057;-82
2022/12/29 05:32:02;;;;;;;4.97;1.33;;;11.30;99.90;;;;;;4974510;28;20392;-82
2022/12/29 05:34:28;;;;;;;3.60;1.40;;;11.20;99.90;;;;;;4974042;28;20038;-82
2022/12/29 05:36:54;;;;;;;2.83;1.00;;;11.10;99.90;;;;;;4974343;28;20038;-82
2022/12/29 05:39:19;;;;;;;4.88;1.20;;;11.00;99.90;;;;;;4973967;28;20032;-82
2022/12/29 05:41:45;;;;;;;5.57;1.33;;;11.00;99.90;;;;;;4974310;28;20022;-82
2022/12/29 05:44:11;;;;;;;4.55;1.10;;;11.00;99.90;;;;;;4957777;28;20066;-81
2022/12/29 05:46:36;;;;;;;4.70;0.98;;;10.90;99.90;;;;;;4974341;28;20030;-82
2022/12/29 05:49:02;;;;;;;5.40;1.75;;;10.80;99.90;;;;;;4974167;28;20034;-82
2022/12/29 05:51:28;;;;;;;6.13;1.20;;;10.80;99.90;;;;;;4973773;28;20031;-82
2022/12/29 05:53:54;;;;;;;5.00;1.00;;;10.80;99.90;;;;;;4990085;28;20039;-83
2022/12/29 05:56:20;;;;;;;5.55;1.45;;;10.70;99.90;;;;;;4994415;28;20026;-83
2022/12/29 05:58:45;;;;;;;7.72;1.92;;;10.60;99.90;;;;;;4993434;28;20036;-83
2022/12/29 06:01:11;;;;;;;9.90;1.67;;;10.60;99.90;;;;;;4977404;28;20030;-82
2022/12/29 06:03:36;;;;;;;6.10;1.25;;;10.50;99.90;;;;;;4976435;28;20368;-83
2022/12/29 06:06:02;;;;;;;7.35;1.60;;;10.60;99.90;;;;;;4976867;28;20434;-82
2022/12/29 06:08:28;;;;;;;11.93;2.00;;;10.50;99.90;;;;;;4977256;28;20081;-82
2022/12/29 06:10:53;;;;;;;5.10;1.25;;;10.50;99.90;;;;;;4996566;28;20466;-83
2022/12/29 06:13:19;;;;;;;11.05;1.83;;;10.50;99.90;;;;;;4980345;28;20034;-86
2022/12/29 06:15:45;;;;;;;8.02;1.35;;;10.40;99.90;;;;;;4980535;28;20493;-82
2022/12/29 06:18:10;;;;;;;4.93;1.45;;;10.50;99.90;;;;;;4980517;28;20026;-83
2022/12/29 06:20:36;;;;;;;10.05;1.73;;;10.40;99.90;;;;;;4996679;28;20022;-82
2022/12/29 06:23:02;;;;;;;8.45;1.35;;;10.40;99.90;;;;;;4980446;28;20034;-83
2022/12/29 06:25:30;;;;;;;7.20;1.40;;;10.40;99.90;;;;;;4980846;28;20390;-83
2022/12/29 06:27:56;;;;;;;8.75;1.85;;;10.40;99.90;;;;;;4981159;28;20022;-83
2022/12/29 06:30:22;;;;;;;12.05;1.75;;;10.40;99.90;;;;;;4996267;28;20467;-88
2022/12/29 06:32:47;;;;;;;9.77;1.35;;;10.40;99.90;;;;;;4997334;28;20116;-83
2022/12/29 06:35:13;;;;;;;11.52;1.80;;;10.30;99.90;;;;;;4983265;28;20026;-82
2022/12/29 06:37:39;;;;;;;5.00;1.50;;;10.30;99.90;;;;;;4997079;28;20060;-82
2022/12/29 06:40:05;;;;;;;9.02;1.60;;;10.30;99.90;;;;;;4997384;28;20458;-82
2022/12/29 06:42:31;;;;;;;5.80;1.15;;;10.30;99.90;;;;;;4998784;28;20042;-83
2022/12/29 06:44:58;;;;;;;9.18;1.50;;;10.30;99.90;;;;;;4982769;28;20064;-83
2022/12/29 06:47:24;;;;;;;9.82;1.73;;;10.30;99.90;;;;;;4987212;28;20029;-90
2022/12/29 06:49:50;;;;;;;7.75;1.55;;;10.30;99.90;;;;;;5018308;28;20092;-83
2022/12/29 06:52:16;;;;;;;7.65;1.27;;;10.30;99.90;;;;;;5001364;28;20014;-85
2022/12/29 06:54:42;;;;;;;7.43;1.08;;;10.40;99.90;;;;;;5034050;28;20014;-84
2022/12/29 06:57:07;;;;;;;5.47;1.10;;;10.30;99.90;;;;;;5004516;28;20024;-82
2022/12/29 06:59:33;;;;;;;8.68;1.48;;;10.40;99.90;;;;;;5017741;28;20138;-83
2022/12/29 07:01:59;;;;;;;6.10;1.90;;;10.40;99.90;;;;;;5035891;28;20033;-86
2022/12/29 07:04:24;;;;;;;10.25;1.77;;;10.40;99.90;;;;;;5004146;28;20042;-83
2022/12/29 07:06:50;;;;;;;7.05;1.30;;;10.40;99.90;;;;;;4987108;28;20034;-83
2022/12/29 07:09:16;;;;;;;6.97;1.25;;;10.40;99.90;;;;;;4998454;28;20030;-83
2022/12/29 07:11:41;;;;;;;9.50;1.60;;;10.40;99.90;;;;;;4994782;28;20041;-84
2022/12/29 07:14:07;;;;;;;6.65;1.40;;;10.40;99.90;;;;;;5001565;28;20037;-84
2022/12/29 07:16:34;;;;;;;4.70;1.23;;;10.40;99.90;;;;;;4992200;28;20621;-83
2022/12/29 07:18:59;;;;;;;5.63;1.10;;;10.40;99.90;;;;;;5000477;28;20030;-83
2022/12/29 07:21:27;;;;;;;7.70;1.20;;;10.50;99.90;;;;;;4984298;28;20463;-83
2022/12/29 07:23:53;;;;;;;7.05;1.52;;;10.40;99.90;;;;;;4983553;28;20029;-83
2022/12/29 07:26:20;;;;;;;7.47;1.30;;;10.50;99.90;;;;;;4999847;28;20474;-85
2022/12/29 07:28:46;;;;;;;7.93;1.40;;;10.50;99.90;;;;;;4983333;28;20041;-84
2022/12/29 07:31:16;;;;;;;7.30;1.42;;;10.50;99.90;;;;;;4995342;28;20026;-84
2022/12/29 07:33:43;;;;;;;6.10;1.23;;;10.50;99.90;;;;;;5011772;28;20036;-84
2022/12/29 07:36:09;;;;;;;8.25;1.55;;;10.60;99.90;;;;;;4998545;28;20030;-84
2022/12/29 07:38:34;;;;;;;8.77;1.40;;;10.50;99.90;;;;;;5011631;28;20037;-84
2022/12/29 07:41:00;;;;;;;10.43;1.30;;;10.60;99.90;;;;;;4980118;28;20434;-83
2022/12/29 07:43:26;;;;;;;8.40;1.38;;;10.60;99.90;;;;;;4999371;28;20034;-84
2022/12/29 07:45:51;;;;;;;4.90;1.00;;;10.60;99.90;;;;;;4983183;28;20033;-85
2022/12/29 07:48:17;;;;;;;7.13;1.27;;;10.60;99.90;;;;;;4983435;28;20371;-84
2022/12/29 07:50:43;;;;;;;10.75;1.60;;;10.60;99.90;;;;;;4999366;28;20474;-84
2022/12/29 07:53:09;;;;;;;9.27;1.35;;;10.70;99.90;;;;;;4983321;28;20099;-84
2022/12/29 07:55:34;;;;;;;9.05;1.90;;;10.70;99.90;;;;;;5016862;28;20093;-84
2022/12/29 07:58:00;;;;;;;8.77;1.70;;;10.70;99.90;;;;;;4982964;28;20068;-84
2022/12/29 08:00:26;;;;;;;7.95;1.55;;;10.70;99.90;;;;;;4999661;28;20053;-84
2022/12/29 08:02:52;;;;;;;9.00;1.38;;;10.80;99.90;;;;;;4999074;28;20034;-84
2022/12/29 08:05:17;;;;;;;9.45;2.10;;;10.80;99.90;;;;;;4999671;28;20117;-84
2022/12/29 08:07:44;;;;;;;10.38;1.83;;;10.80;99.90;;;;;;5016904;28;20033;-84
2022/12/29 08:10:10;;;;;;;8.60;1.60;;;10.80;99.90;;;;;;5016847;28;20022;-84
2022/12/29 08:12:38;;;;;;;8.73;1.65;;;10.80;99.90;;;;;;4982683;28;20496;-84
2022/12/29 08:15:05;;;;;;;8.20;1.70;;;10.80;99.90;;;;;;4999507;28;20030;-84
2022/12/29 08:17:30;;;;;;;10.07;1.70;;;10.80;99.90;;;;;;4983461;28;20026;-84
2022/12/29 08:19:56;;;;;;;8.68;2.38;;;10.80;99.90;;;;;;4998982;28;20129;-84
2022/12/29 08:22:23;;;;;;;12.20;2.40;;;10.80;99.90;;;;;;5016569;28;20053;-84
2022/12/29 08:24:49;;;;;;;12.10;2.10;;;10.80;99.90;;;;;;5011864;28;20496;-84
2022/12/29 08:27:15;;;;;;;8.98;1.60;;;10.80;99.90;;;;;;5012057;28;20114;-84
2022/12/29 08:29:40;;;;;;;8.30;1.92;;;10.80;99.90;;;;;;4975635;28;20033;-85
2022/12/29 08:32:06;;;;;;;12.43;2.08;;;10.80;99.90;;;;;;4998237;28;20033;-84
2022/12/29 08:34:32;;;;;;;9.88;1.75;;;10.80;99.90;;;;;;5011790;28;20027;-84
2022/12/29 08:36:58;;;;;;;8.13;1.60;;;10.80;99.90;;;;;;4995074;28;20031;-84
2022/12/29 08:39:24;;;;;;;11.43;2.13;;;10.80;99.90;;;;;;4982366;28;20389;-84
2022/12/29 08:41:50;;;;;;;8.13;1.60;;;10.80;99.90;;;;;;4996089;28;20466;-84
2022/12/29 08:44:18;;;;;;;10.52;1.63;;;10.80;99.90;;;;;;5011967;28;20093;-84
2022/12/29 08:46:43;;;;;;;7.32;1.40;;;10.80;99.90;;;;;;4976129;28;20030;-84
2022/12/29 08:49:09;;;;;;;9.57;1.42;;;10.90;99.90;;;;;;4998961;28;20037;-84
2022/12/29 08:51:34;;;;;;;10.25;1.73;;;10.90;99.90;;;;;;4998946;28;20097;-84
2022/12/29 08:54:00;;;;;;;8.38;1.45;;;10.90;99.90;;;;;;4998212;28;20022;-85
2022/12/29 08:56:27;;;;;;;8.77;1.70;;;10.90;99.90;;;;;;4995342;28;20026;-84
2022/12/29 08:58:55;;;;;;;11.07;1.92;;;11.00;99.90;;;;;;4977644;28;20036;-84
2022/12/29 09:01:22;;;;;;;10.90;1.70;;;11.00;99.90;;;;;;5011614;28;20068;-84
2022/12/29 09:03:48;;;;;;;8.57;1.50;;;11.00;99.90;;;;;;4992272;28;20037;-85
2022/12/29 09:06:15;;;;;;;13.43;2.33;;;11.00;99.90;;;;;;5011585;28;20517;-84
2022/12/29 09:08:40;;;;;;;11.07;2.35;;;11.00;99.90;;;;;;4990841;28;20060;-84
2022/12/29 09:11:22;;;;;;;9.68;1.95;;;11.00;99.90;;;;;;4980945;28;20096;-83
2022/12/29 09:13:47;;;;;;;11.13;2.15;;;11.00;99.90;;;;;;5011252;28;20359;-84
2022/12/29 09:16:14;;;;;;;9.13;2.67;;;11.10;99.90;;;;;;4998578;28;20041;-84
2022/12/29 09:18:40;;;;;;;10.43;3.00;;;11.10;99.90;;;;;;5015049;28;20026;-84
2022/12/29 09:21:07;;;;;;;8.98;2.90;;;11.10;99.90;;;;;;4982393;28;20382;-84
2022/12/29 09:23:33;;;;;;;7.72;1.40;;;11.00;99.90;;;;;;5012254;28;20128;-84
2022/12/29 09:25:59;;;;;;;8.57;1.85;;;11.00;99.90;;;;;;4996521;28;20455;-84
2022/12/29 09:28:25;;;;;;;11.43;1.88;;;11.00;99.90;;;;;;4998905;28;20022;-84
2022/12/29 09:30:51;;;;;;;16.73;3.20;;;10.90;99.90;;;;;;5014239;28;20157;-84
2022/12/29 09:33:18;;;;;;;10.45;2.40;;;10.90;99.90;;;;;;4995827;28;20482;-85
2022/12/29 09:35:45;;;;;;;15.05;1.85;;;10.80;99.90;;;;;;5014368;28;20056;-89
2022/12/29 09:38:17;;;;;;;12.45;2.05;;;10.80;99.90;;;;;;5015321;28;20050;-88
2022/12/29 09:41:18;;;;;;;;;;;;;;;;;;;;;
2022/12/29 09:44:02;;;;;;;;;;;10.80;99.90;;;;;;5027985;28;20081;-86
2022/12/29 09:46:40;;;;;;;7.60;1.83;;;10.90;99.90;;;;;;5006239;28;19909;-85
2022/12/29 09:49:28;;;;;;;10.75;1.70;;;10.90;99.90;;;;;;4999697;28;20061;-86
2022/12/29 09:52:01;;;;;;;6.30;1.40;;;10.90;99.90;;;;;;5015839;28;20026;-85
2022/12/29 09:54:42;;;;;;;7.28;1.70;;;10.90;99.90;;;;;;4997969;28;20038;-84
2022/12/29 09:57:26;;;;;;;10.45;1.50;;;10.90;99.90;;;;;;4999588;28;20053;-83
2022/12/29 09:59:57;;;;;;;11.13;1.73;;;10.90;99.90;;;;;;5016222;28;20080;-85
2022/12/29 10:02:38;;;;;;;7.03;1.63;;;10.90;99.90;;;;;;5015784;28;20100;-84
2022/12/29 10:05:12;;;;;;;16.67;2.60;;;10.90;99.90;;;;;;5015813;28;20037;-84
2022/12/29 10:08:25;;;;;;;12.73;1.90;;;10.90;99.90;;;;;;5014483;28;20117;-84
2022/12/29 10:11:17;;;;;;;6.47;1.63;;;10.90;99.90;;;;;;4979650;28;20141;-86
2022/12/29 10:14:03;;;;;;;8.90;1.63;;;10.80;99.90;;;;;;4969902;28;20038;-85
2022/12/29 10:16:49;;;;;;;11.25;1.90;;;10.80;99.90;;;;;;5011800;28;20030;-84
2022/12/29 10:19:31;;;;;;;9.90;2.20;;;10.80;99.90;;;;;;4979070;28;20459;-84
2022/12/29 10:22:38;;;;;;;7.00;1.40;;;10.70;99.90;;;;;;4983888;28;20025;-84
2022/12/29 10:25:23;;;;;;;10.15;1.65;;;10.70;99.90;;;;;;5019525;28;20054;-84
2022/12/29 10:27:51;;;;;;;8.98;1.60;;;10.70;99.90;;;;;;5015059;28;20109;-84
2022/12/29 10:30:18;;;;;;;7.82;1.30;;;10.70;99.90;;;;;;5015804;28;20025;-85
2022/12/29 10:33:09;;;;;;;9.65;1.70;;;10.60;99.90;;;;;;5016597;28;20030;-84
2022/12/29 10:35:38;;;;;;;8.55;1.55;;;10.60;99.90;;;;;;5039322;28;20041;-83
2022/12/29 10:38:23;;;;;;;11.57;2.35;;;10.60;99.90;;;;;;5028524;28;20026;-84
2022/12/29 10:40:52;;;;;;;8.95;1.88;;;10.60;99.90;;;;;;5037344;28;20031;-83
2022/12/29 10:43:40;;;;;;;12.38;1.67;;;10.50;99.90;;;;;;5036774;28;20041;-84
2022/12/29 10:46:12;;;;;;;14.25;2.05;;;10.50;99.90;;;;;;5027451;28;20076;-84
2022/12/29 10:48:38;;;;;;;8.18;1.40;;;10.50;99.90;;;;;;5036340;28;20017;-83
2022/12/29 10:51:07;;;;;;;7.05;1.40;;;10.50;99.90;;;;;;5021732;28;20056;-85
2022/12/29 10:53:44;;;;;;;6.88;2.20;;;10.50;99.90;;;;;;5022156;28;20036;-85
2022/12/29 10:56:35;;;;;;;11.65;1.90;;;10.50;99.90;;;;;;5018655;28;20390;-84
2022/12/29 10:59:28;;;;;;;10.70;2.30;;;10.50;99.90;;;;;;5018822;28;20029;-84
2022/12/29 11:01:53;;;;;;;6.25;1.92;;;10.60;99.90;;;;;;5014010;28;20030;-83
2022/12/29 11:04:51;;;;;;;10.25;2.17;;;10.60;99.90;;;;;;5017132;28;20573;-83
2022/12/29 11:07:19;;;;;;;13.23;2.20;;;10.60;99.90;;;;;;5011837;28;20038;-84
2022/12/29 11:09:46;;;;;;;8.80;2.05;;;10.50;99.90;;;;;;5017164;28;20352;-83
2022/12/29 11:12:33;;;;;;;8.23;1.90;;;10.60;99.90;;;;;;5000388;28;20061;-83
2022/12/29 11:15:17;;;;;;;9.75;2.75;;;10.60;99.90;;;;;;5017275;28;20116;-83
2022/12/29 11:17:57;;;;;;;10.23;2.15;;;10.60;99.90;;;;;;5000844;28;20128;-83
2022/12/29 11:20:33;;;;;;;9.27;1.92;;;10.60;99.90;;;;;;5016842;28;20030;-83
2022/12/29 11:23:03;;;;;;;9.95;1.90;;;10.60;99.90;;;;;;5016829;28;20021;-86
2022/12/29 11:25:29;;;;;;;12.40;2.25;;;10.70;99.90;;;;;;5016065;28;20026;-81
2022/12/29 11:28:31;;;;;;;14.45;2.28;;;10.70;99.90;;;;;;5015817;28;20168;-82
2022/12/29 11:31:07;;;;;;;11.68;2.38;;;10.70;99.90;;;;;;5015677;28;20473;-81
2022/12/29 11:33:35;;;;;;;11.27;2.25;;;10.70;99.90;;;;;;4999914;28;20026;-81
2022/12/29 11:36:06;;;;;;;14.00;2.60;;;10.70;99.90;;;;;;5015700;28;20116;-86
2022/12/29 11:38:38;;;;;;;12.80;2.70;;;10.80;99.90;;;;;;5016495;28;20025;-81
2022/12/29 11:41:06;;;;;;;10.57;2.10;;;10.70;99.90;;;;;;5015546;28;20022;-81
2022/12/29 11:43:39;;;;;;;13.10;2.92;;;10.80;99.90;;;;;;5015495;28;20069;-81
2022/12/29 11:46:06;;;;;;;13.77;2.70;;;10.70;99.90;;;;;;5015047;28;20038;-81
2022/12/29 11:48:42;;;;;;;13.00;2.58;;;10.70;99.90;;;;;;5015256;28;20332;-82
2022/12/29 11:51:09;;;;;;;12.15;2.47;;;10.80;99.90;;;;;;4998843;28;20172;-81
2022/12/29 11:53:47;;;;;;;15.95;2.85;;;10.80;99.90;;;;;;5015584;28;20022;-82
2022/12/29 11:56:19;;;;;;;16.90;2.80;;;10.80;99.90;;;;;;4992638;28;20126;-82
2022/12/29 11:58:49;;;;;;;15.85;3.80;;;10.90;99.90;;;;;;4992735;28;20146;-86
2022/12/29 12:01:28;;;;;;;13.07;2.60;;;10.80;99.90;;;;;;4999466;28;20030;-85
2022/12/29 12:04:03;;;;;;;11.45;2.40;;;10.90;99.90;;;;;;4998710;28;20053;-82
2022/12/29 12:06:33;;;;;;;10.43;3.05;;;10.90;99.90;;;;;;4990175;28;20037;-81
2022/12/29 12:09:23;;;;;;;9.75;2.38;;;10.90;99.90;;;;;;5008389;28;20066;-81
2022/12/29 12:11:54;;;;;;;10.30;2.80;;;10.90;99.90;;;;;;5011796;28;20057;-81
2022/12/29 12:14:43;;;;;;;12.88;2.67;;;11.00;99.90;;;;;;5007002;28;20109;-82
2022/12/29 12:17:18;;;;;;;11.05;2.72;;;11.00;99.90;;;;;;4997930;28;20462;-81
2022/12/29 12:20:03;;;;;;;10.80;2.95;;;11.00;99.90;;;;;;4999017;28;20053;-84
2022/12/29 12:22:43;;;;;;;12.35;2.65;;;11.00;99.90;;;;;;4999902;28;20029;-87
2022/12/29 12:25:23;;;;;;;13.50;3.38;;;11.00;99.90;;;;;;5015401;28;20037;-81
2022/12/29 12:28:10;;;;;;;13.03;3.10;;;11.00;99.90;;;;;;5027416;28;20022;-83
2022/12/29 12:30:45;;;;;;;12.80;2.97;;;11.10;99.90;;;;;;4993837;28;20066;-82
2022/12/29 12:33:32;;;;;;;12.85;3.30;;;11.10;99.90;;;;;;4996971;28;20080;-82
2022/12/29 12:36:27;;;;;;;10.63;2.75;;;11.10;99.90;;;;;;4975274;28;20019;-82
2022/12/29 12:39:10;;;;;;;15.93;3.30;;;11.10;99.90;;;;;;4978723;28;20068;-82
2022/12/29 12:41:58;;;;;;;14.20;3.13;;;11.20;99.90;;;;;;4977115;28;20018;-83
2022/12/29 12:44:45;;;;;;;13.75;3.22;;;11.20;99.90;;;;;;4994935;28;20158;-83
2022/12/29 12:47:21;;;;;;;13.00;3.63;;;11.30;99.90;;;;;;4978350;28;20028;-84
2022/12/29 12:50:11;;;;;;;15.68;3.42;;;11.30;99.90;;;;;;4992083;28;20546;-83
2022/12/29 12:52:58;;;;;;;13.73;3.78;;;11.40;99.90;;;;;;4998382;28;20025;-84
2022/12/29 12:55:36;;;;;;;11.77;2.58;;;11.40;99.90;;;;;;5015151;28;20026;-83
2022/12/29 12:58:25;;;;;;;14.48;3.03;;;11.40;99.90;;;;;;4990141;28;20089;-82
2022/12/29 13:01:12;;;;;;;13.82;3.33;;;11.40;99.90;;;;;;4982571;28;20130;-84
2022/12/29 13:03:40;;;;;;;9.63;2.63;;;11.40;99.90;;;;;;5011974;28;20026;-84
2022/12/29 13:06:06;;;;;;;10.07;2.90;;;11.40;99.90;;;;;;4989118;28;20398;-83
2022/12/29 13:08:53;;;;;;;12.35;2.35;;;11.40;99.90;;;;;;5014837;28;20037;-81
2022/12/29 13:11:52;;;;;;;9.82;2.58;;;11.40;99.90;;;;;;4997309;28;20140;-82
2022/12/29 13:14:36;;;;;;;12.00;2.60;;;11.40;99.90;;;;;;4968812;28;20043;-84
2022/12/29 13:17:08;;;;;;;14.82;2.75;;;11.30;99.90;;;;;;4976329;28;20470;-85
2022/12/29 13:20:02;;;;;;;17.25;3.42;;;11.30;99.90;;;;;;4995476;28;20461;-83
2022/12/29 13:22:56;;;;;;;11.50;2.80;;;11.30;99.90;;;;;;5013504;28;20033;-84
2022/12/29 13:25:24;;;;;;;11.98;2.83;;;11.30;99.90;;;;;;5014832;28;20030;-83
2022/12/29 13:28:04;;;;;;;10.02;2.97;;;11.30;99.90;;;;;;5018781;28;20037;-82
2022/12/29 13:30:50;;;;;;;13.70;3.83;;;11.20;99.90;;;;;;4996936;28;20026;-82
2022/12/29 13:33:18;;;;;;;13.85;2.95;;;11.30;99.90;;;;;;4982304;28;20521;-86
2022/12/29 13:36:22;;;;;;;12.00;3.00;;;11.30;99.90;;;;;;4993382;28;20439;-83
2022/12/29 13:38:53;;;;;;;12.10;2.90;;;11.30;99.90;;;;;;4999366;28;20056;-83
2022/12/29 13:41:27;;;;;;;;;;;11.20;99.90;;;;;;5014968;28;20021;-84
2022/12/29 13:43:55;;;;;;;12.52;2.50;;;11.20;99.90;;;;;;4996272;28;19909;-86
2022/12/29 13:46:29;;;;;;;14.27;2.70;;;11.20;99.90;;;;;;4996616;28;20049;-83